Time;durP1;ratioP1;P1;durP2;ratioP2;P2;SDS_P1;SDS_P2;PMS_P1;PMS_P2;Temp;Humidity;BMP_temperature;BMP_pressure;BME280_temperature;BME280_humidity;BME280_pressure;Samples;Min_cycle;Max_cycle;Signal;HPM_P1;HPM_P2
2021/08/08 00:00:58;;;;;;;15.82;7.03;;;;;;;;;;5022467;28;20120;-75
2021/08/08 00:03:24;;;;;;;20.00;7.22;;;;;;;;;;5024180;28;20105;-75
2021/08/08 00:05:49;;;;;;;20.20;7.10;;;;;;;;;;5018377;28;20052;-75
2021/08/08 00:08:15;;;;;;;16.20;6.25;;;;;;;;;;5025235;28;20041;-76
2021/08/08 00:10:41;;;;;;;28.20;6.55;;;;;;;;;;5023804;28;20037;-74
2021/08/08 00:13:07;;;;;;;16.23;6.40;;;;;;;;;;5028231;28;20085;-76
2021/08/08 00:15:34;;;;;;;18.60;6.38;;;;;;;;;;5027128;28;20057;-73
2021/08/08 00:18:02;;;;;;;14.98;5.55;;;;;;;;;;5025043;28;20045;-75
2021/08/08 00:20:28;;;;;;;18.08;6.47;;;;;;;;;;5023313;28;20022;-74
2021/08/08 00:22:54;;;;;;;13.35;6.13;;;;;;;;;;5020040;28;20032;-75
2021/08/08 00:25:19;;;;;;;20.33;5.82;;;;;;;;;;5023176;28;20029;-74
2021/08/08 00:27:44;;;;;;;13.63;5.93;;;;;;;;;;5027839;28;20371;-74
2021/08/08 00:30:10;;;;;;;21.20;6.45;;;;;;;;;;5018771;28;20036;-73
2021/08/08 00:32:36;;;;;;;20.13;7.85;;;;;;;;;;5026363;28;20091;-74
2021/08/08 00:35:02;;;;;;;15.65;6.78;;;;;;;;;;5025645;28;20466;-73
2021/08/08 00:37:27;;;;;;;22.45;8.68;;;;;;;;;;5025752;28;20021;-74
2021/08/08 00:39:53;;;;;;;16.50;8.10;;;;;;;;;;5009077;28;20449;-74
2021/08/08 00:42:18;;;;;;;25.77;8.38;;;;;;;;;;5009396;28;20026;-77
2021/08/08 00:44:44;;;;;;;22.30;8.23;;;;;;;;;;5022229;28;20033;-74
2021/08/08 00:47:10;;;;;;;20.88;7.60;;;;;;;;;;5008973;28;20029;-74
2021/08/08 00:49:35;;;;;;;23.17;8.13;;;;;;;;;;5023984;28;20087;-75
2021/08/08 00:52:01;;;;;;;21.58;7.85;;;;;;;;;;5019976;28;20037;-75
2021/08/08 00:54:26;;;;;;;14.73;5.55;;;;;;;;;;5026391;28;20437;-75
2021/08/08 00:56:52;;;;;;;16.00;6.90;;;;;;;;;;5026032;28;20025;-73
2021/08/08 00:59:17;;;;;;;23.25;6.82;;;;;;;;;;5020475;28;20091;-75
2021/08/08 01:01:46;;;;;;;20.58;6.63;;;;;;;;;;5024932;28;20044;-74
2021/08/08 01:04:16;;;;;;;17.40;5.95;;;;;;;;;;5021041;28;20032;-74
2021/08/08 01:06:55;;;;;;;13.00;5.07;;;;;;;;;;5018287;28;20033;-74
2021/08/08 01:09:23;;;;;;;13.02;4.97;;;;;;;;;;5023153;28;20029;-73
2021/08/08 01:11:49;;;;;;;12.48;4.78;;;;;;;;;;5022954;28;20542;-74
2021/08/08 01:14:17;;;;;;;12.90;5.65;;;;;;;;;;5007028;28;20608;-73
2021/08/08 01:16:44;;;;;;;9.38;4.35;;;;;;;;;;5024160;28;20021;-74
2021/08/08 01:19:10;;;;;;;7.82;3.72;;;;;;;;;;5024727;28;20079;-74
2021/08/08 01:21:37;;;;;;;11.48;4.18;;;;;;;;;;5025685;28;20963;-74
2021/08/08 01:24:04;;;;;;;10.00;4.43;;;;;;;;;;5018083;28;20545;-74
2021/08/08 01:26:32;;;;;;;10.30;4.13;;;;;;;;;;5026448;28;20029;-73
2021/08/08 01:28:58;;;;;;;8.38;3.53;;;;;;;;;;5020326;28;20060;-74
2021/08/08 01:31:24;;;;;;;12.30;4.35;;;;;;;;;;5022351;28;20509;-74
2021/08/08 01:33:50;;;;;;;10.13;3.65;;;;;;;;;;5025316;28;20041;-75
2021/08/08 01:36:16;;;;;;;10.07;4.38;;;;;;;;;;5014595;28;20068;-74
2021/08/08 01:39:10;;;;;;;13.90;5.22;;;;;;;;;;5023234;28;20029;-74
2021/08/08 01:41:42;;;;;;;9.70;4.18;;;;;;;;;;5021183;28;20025;-74
2021/08/08 01:44:08;;;;;;;8.88;4.10;;;;;;;;;;5024290;28;20025;-75
2021/08/08 01:46:34;;;;;;;6.80;3.67;;;;;;;;;;5022195;28;20069;-74
2021/08/08 01:49:02;;;;;;;11.57;5.05;;;;;;;;;;5017914;28;20052;-74
2021/08/08 01:51:28;;;;;;;11.23;4.00;;;;;;;;;;5013202;28;20033;-74
2021/08/08 01:53:54;;;;;;;15.93;4.47;;;;;;;;;;5019858;28;20519;-76
2021/08/08 01:56:20;;;;;;;10.73;3.83;;;;;;;;;;5023998;28;20048;-75
2021/08/08 01:58:45;;;;;;;10.85;4.68;;;;;;;;;;5005989;28;20810;-77
2021/08/08 02:01:11;;;;;;;10.82;4.30;;;;;;;;;;5025517;28;20041;-74
2021/08/08 02:03:38;;;;;;;10.25;4.28;;;;;;;;;;5021194;28;20037;-73
2021/08/08 02:06:06;;;;;;;12.50;4.75;;;;;;;;;;5022203;28;20023;-74
2021/08/08 02:08:32;;;;;;;16.70;4.95;;;;;;;;;;5006649;28;20045;-74
2021/08/08 02:10:58;;;;;;;22.02;5.47;;;;;;;;;;5020610;28;20447;-75
2021/08/08 02:13:23;;;;;;;11.52;5.03;;;;;;;;;;5022828;28;20033;-74
2021/08/08 02:15:49;;;;;;;12.98;5.57;;;;;;;;;;5025060;28;20033;-74
2021/08/08 02:18:16;;;;;;;7.90;5.00;;;;;;;;;;5003701;28;20090;-74
2021/08/08 02:20:41;;;;;;;15.75;5.32;;;;;;;;;;5017759;28;20032;-74
2021/08/08 02:23:07;;;;;;;12.13;5.85;;;;;;;;;;5020548;28;20060;-74
2021/08/08 02:25:32;;;;;;;14.48;6.75;;;;;;;;;;5022172;28;20064;-74
2021/08/08 02:27:58;;;;;;;10.13;5.43;;;;;;;;;;5021974;28;20398;-74
2021/08/08 02:30:23;;;;;;;9.30;5.82;;;;;;;;;;5018479;28;20083;-73
2021/08/08 02:32:49;;;;;;;12.23;7.07;;;;;;;;;;5022795;28;20029;-74
2021/08/08 02:35:14;;;;;;;18.30;6.68;;;;;;;;;;5004131;28;20038;-74
2021/08/08 02:37:40;;;;;;;16.45;7.28;;;;;;;;;;5024019;28;20106;-74
2021/08/08 02:40:06;;;;;;;13.52;6.60;;;;;;;;;;5015912;28;20072;-73
2021/08/08 02:42:32;;;;;;;13.82;6.88;;;;;;;;;;5020734;28;20790;-73
2021/08/08 02:44:58;;;;;;;11.30;6.07;;;;;;;;;;5023176;28;20033;-73
2021/08/08 02:47:23;;;;;;;8.52;5.15;;;;;;;;;;5023010;28;20061;-74
2021/08/08 02:49:49;;;;;;;6.88;4.35;;;;;;;;;;5023787;28;20486;-74
2021/08/08 02:52:14;;;;;;;12.43;4.72;;;;;;;;;;5021073;28;20032;-75
2021/08/08 02:54:40;;;;;;;10.05;4.50;;;;;;;;;;5020950;28;20045;-74
2021/08/08 02:57:05;;;;;;;9.57;4.85;;;;;;;;;;5023423;28;20033;-74
2021/08/08 02:59:33;;;;;;;6.75;4.43;;;;;;;;;;5020404;28;20714;-75
2021/08/08 03:01:59;;;;;;;13.45;4.18;;;;;;;;;;4999410;28;20584;-75
2021/08/08 03:04:25;;;;;;;5.68;3.83;;;;;;;;;;5024099;28;20056;-74
2021/08/08 03:06:50;;;;;;;6.38;3.72;;;;;;;;;;5016502;28;20793;-74
2021/08/08 03:09:15;;;;;;;11.75;4.82;;;;;;;;;;5027142;28;20120;-74
2021/08/08 03:11:45;;;;;;;10.63;4.25;;;;;;;;;;5020564;28;20138;-73
2021/08/08 03:14:12;;;;;;;7.25;4.28;;;;;;;;;;5021868;28;20045;-74
2021/08/08 03:16:38;;;;;;;10.38;4.32;;;;;;;;;;5019894;28;20029;-75
2021/08/08 03:19:03;;;;;;;14.65;5.10;;;;;;;;;;5019666;28;20029;-75
2021/08/08 03:21:29;;;;;;;9.02;4.50;;;;;;;;;;5023074;28;20021;-75
2021/08/08 03:23:54;;;;;;;7.68;4.28;;;;;;;;;;4996800;28;20029;-75
2021/08/08 03:26:20;;;;;;;7.10;4.50;;;;;;;;;;5021095;28;20499;-74
2021/08/08 03:28:45;;;;;;;6.65;4.15;;;;;;;;;;5011281;28;20041;-75
2021/08/08 03:31:11;;;;;;;7.05;3.83;;;;;;;;;;5014307;28;20041;-76
2021/08/08 03:33:36;;;;;;;7.07;4.15;;;;;;;;;;5023679;28;20038;-75
2021/08/08 03:36:02;;;;;;;9.50;3.95;;;;;;;;;;5004635;28;20129;-75
2021/08/08 03:38:27;;;;;;;6.22;3.75;;;;;;;;;;5019658;28;20478;-75
2021/08/08 03:40:53;;;;;;;8.93;4.43;;;;;;;;;;5015742;28;20415;-75
2021/08/08 03:43:19;;;;;;;9.02;3.25;;;;;;;;;;5020704;28;20048;-75
2021/08/08 03:45:45;;;;;;;7.78;3.55;;;;;;;;;;5019217;28;20057;-75
2021/08/08 03:48:10;;;;;;;8.50;2.95;;;;;;;;;;5016469;28;20041;-78
2021/08/08 03:50:39;;;;;;;11.45;2.90;;;;;;;;;;5022215;28;20037;-75
2021/08/08 03:53:04;;;;;;;11.18;3.13;;;;;;;;;;5018353;28;20029;-77
2021/08/08 03:55:30;;;;;;;7.45;3.20;;;;;;;;;;5021799;28;20040;-75
2021/08/08 03:57:57;;;;;;;7.07;2.90;;;;;;;;;;4988981;28;20048;-76
2021/08/08 04:00:23;;;;;;;8.52;3.17;;;;;;;;;;5022453;28;20047;-76
2021/08/08 04:02:48;;;;;;;8.18;2.95;;;;;;;;;;5004769;28;20033;-75
2021/08/08 04:05:14;;;;;;;6.03;3.30;;;;;;;;;;5005611;28;20048;-75
2021/08/08 04:07:39;;;;;;;10.05;3.28;;;;;;;;;;5014529;28;20037;-76
2021/08/08 04:10:05;;;;;;;3.83;2.85;;;;;;;;;;5018969;28;20037;-73
2021/08/08 04:12:31;;;;;;;14.35;3.30;;;;;;;;;;5017371;28;20049;-75
2021/08/08 04:14:56;;;;;;;5.88;3.63;;;;;;;;;;5018818;28;20044;-76
2021/08/08 04:17:22;;;;;;;5.68;3.13;;;;;;;;;;5024485;28;20154;-76
2021/08/08 04:19:47;;;;;;;5.63;2.92;;;;;;;;;;5021238;28;20421;-75
2021/08/08 04:22:13;;;;;;;9.73;3.22;;;;;;;;;;5021894;28;20425;-75
2021/08/08 04:24:38;;;;;;;7.88;4.10;;;;;;;;;;5005522;28;20029;-76
2021/08/08 04:27:04;;;;;;;15.52;3.63;;;;;;;;;;5006032;28;20041;-76
2021/08/08 04:29:29;;;;;;;8.88;4.90;;;;;;;;;;5022174;28;20021;-77
2021/08/08 04:31:55;;;;;;;7.57;4.57;;;;;;;;;;5022045;28;20622;-75
2021/08/08 04:34:20;;;;;;;13.27;4.22;;;;;;;;;;5008548;28;20047;-74
2021/08/08 04:36:45;;;;;;;14.15;4.20;;;;;;;;;;5004096;28;20033;-75
2021/08/08 04:39:11;;;;;;;14.18;4.35;;;;;;;;;;5022240;28;20038;-75
2021/08/08 04:41:36;;;;;;;12.05;3.70;;;;;;;;;;5023940;28;20029;-75
2021/08/08 04:44:02;;;;;;;10.68;3.75;;;;;;;;;;5019298;28;20409;-78
2021/08/08 04:46:27;;;;;;;6.10;2.78;;;;;;;;;;5025221;28;20116;-76
2021/08/08 04:48:53;;;;;;;7.95;3.03;;;;;;;;;;5019256;28;20568;-75
2021/08/08 04:51:18;;;;;;;12.18;2.75;;;;;;;;;;5021098;28;20068;-75
2021/08/08 04:53:44;;;;;;;8.95;2.28;;;;;;;;;;5024242;28;20041;-74
2021/08/08 04:56:09;;;;;;;10.25;2.60;;;;;;;;;;5009684;28;20029;-74
2021/08/08 04:58:35;;;;;;;4.80;2.17;;;;;;;;;;5019898;28;20034;-75
2021/08/08 05:01:00;;;;;;;5.60;2.13;;;;;;;;;;5008844;28;20046;-75
2021/08/08 05:03:26;;;;;;;9.48;2.28;;;;;;;;;;5021738;28;20029;-74
2021/08/08 05:05:51;;;;;;;5.10;2.40;;;;;;;;;;5021736;28;20120;-76
2021/08/08 05:08:16;;;;;;;16.92;2.58;;;;;;;;;;5021429;28;20723;-75
2021/08/08 05:10:42;;;;;;;6.57;2.50;;;;;;;;;;5019796;28;20034;-75
2021/08/08 05:13:07;;;;;;;6.13;2.88;;;;;;;;;;5026106;28;20041;-75
2021/08/08 05:15:33;;;;;;;4.78;2.35;;;;;;;;;;5011378;28;20037;-75
2021/08/08 05:17:58;;;;;;;5.25;2.50;;;;;;;;;;5027746;28;20057;-75
2021/08/08 05:20:24;;;;;;;6.93;2.53;;;;;;;;;;5023823;28;20026;-75
2021/08/08 05:22:49;;;;;;;5.47;2.38;;;;;;;;;;5018684;28;20490;-73
2021/08/08 05:25:15;;;;;;;7.43;2.45;;;;;;;;;;5025755;28;20029;-75
2021/08/08 05:27:41;;;;;;;6.43;2.72;;;;;;;;;;5018828;28;20036;-74
2021/08/08 05:30:09;;;;;;;6.05;2.13;;;;;;;;;;5009898;28;20494;-76
2021/08/08 05:32:35;;;;;;;7.65;2.58;;;;;;;;;;5007847;28;20030;-75
2021/08/08 05:35:01;;;;;;;8.95;2.60;;;;;;;;;;5025849;28;20030;-76
2021/08/08 05:37:27;;;;;;;7.50;2.25;;;;;;;;;;5024727;28;20083;-74
2021/08/08 05:39:52;;;;;;;8.95;2.78;;;;;;;;;;5020989;28;20034;-74
2021/08/08 05:42:20;;;;;;;7.43;2.22;;;;;;;;;;5022492;28;20567;-76
2021/08/08 05:44:46;;;;;;;11.23;2.60;;;;;;;;;;5020431;28;20022;-75
2021/08/08 05:47:11;;;;;;;22.35;2.83;;;;;;;;;;5022010;28;20033;-75
2021/08/08 05:49:37;;;;;;;10.68;2.25;;;;;;;;;;5018843;28;20041;-74
2021/08/08 05:52:04;;;;;;;5.18;2.00;;;;;;;;;;5016704;28;20025;-75
2021/08/08 05:54:30;;;;;;;6.78;2.22;;;;;;;;;;5023160;28;20044;-76
2021/08/08 05:56:56;;;;;;;7.55;2.47;;;;;;;;;;5022806;28;20045;-74
2021/08/08 05:59:21;;;;;;;4.88;2.60;;;;;;;;;;5021512;28;20585;-74
2021/08/08 06:01:47;;;;;;;3.08;1.80;;;;;;;;;;5017015;28;20418;-75
2021/08/08 06:04:13;;;;;;;6.82;2.15;;;;;;;;;;5024669;28;20072;-75
2021/08/08 06:06:38;;;;;;;7.15;2.40;;;;;;;;;;4999069;28;20121;-75
2021/08/08 06:09:04;;;;;;;9.52;2.83;;;;;;;;;;5022409;28;20077;-76
2021/08/08 06:11:29;;;;;;;3.95;2.42;;;;;;;;;;5019513;28;20104;-74
2021/08/08 06:13:55;;;;;;;8.90;2.45;;;;;;;;;;5016179;28;20037;-75
2021/08/08 06:16:21;;;;;;;10.73;2.60;;;;;;;;;;5021816;28;20045;-74
2021/08/08 06:18:47;;;;;;;8.55;2.97;;;;;;;;;;5023542;28;20521;-74
2021/08/08 06:21:12;;;;;;;8.38;3.35;;;;;;;;;;5021212;28;20160;-75
2021/08/08 06:23:38;;;;;;;6.28;3.10;;;;;;;;;;5005785;28;20116;-74
2021/08/08 06:26:04;;;;;;;17.88;3.45;;;;;;;;;;5006022;28;20445;-75
2021/08/08 06:28:29;;;;;;;14.75;4.70;;;;;;;;;;5016929;28;20032;-73
2021/08/08 06:30:54;;;;;;;6.63;2.88;;;;;;;;;;5023561;28;20025;-75
2021/08/08 06:33:21;;;;;;;13.25;2.80;;;;;;;;;;5006845;28;20037;-76
2021/08/08 06:35:48;;;;;;;6.05;2.70;;;;;;;;;;5021970;28;20613;-76
2021/08/08 06:38:13;;;;;;;5.38;2.20;;;;;;;;;;5019682;28;20025;-74
2021/08/08 06:40:39;;;;;;;8.18;2.45;;;;;;;;;;5025858;28;20028;-75
2021/08/08 06:43:05;;;;;;;10.57;2.30;;;;;;;;;;5012581;28;20034;-74
2021/08/08 06:45:34;;;;;;;11.32;2.58;;;;;;;;;;5007317;28;20033;-74
2021/08/08 06:48:00;;;;;;;13.40;2.90;;;;;;;;;;5021019;28;20402;-74
2021/08/08 06:50:27;;;;;;;9.07;3.13;;;;;;;;;;5015935;28;20032;-74
2021/08/08 06:52:53;;;;;;;8.38;2.30;;;;;;;;;;5015926;28;20491;-76
2021/08/08 06:55:18;;;;;;;5.43;2.33;;;;;;;;;;5011436;28;20080;-75
2021/08/08 06:57:44;;;;;;;8.38;2.53;;;;;;;;;;5025828;28;20125;-75
2021/08/08 07:00:09;;;;;;;9.90;2.50;;;;;;;;;;4990926;28;20041;-75
2021/08/08 07:02:35;;;;;;;6.53;2.35;;;;;;;;;;5021799;28;20498;-75
2021/08/08 07:05:01;;;;;;;6.00;2.35;;;;;;;;;;5006162;28;20038;-76
2021/08/08 07:07:27;;;;;;;9.25;2.97;;;;;;;;;;5018706;28;20026;-73
2021/08/08 07:09:53;;;;;;;13.60;3.30;;;;;;;;;;5023119;28;20662;-75
2021/08/08 07:12:19;;;;;;;11.63;4.63;;;;;;;;;;5021056;28;20064;-75
2021/08/08 07:14:44;;;;;;;10.23;3.92;;;;;;;;;;5019850;28;20021;-76
2021/08/08 07:17:09;;;;;;;18.65;4.28;;;;;;;;;;5005115;28;20045;-75
2021/08/08 07:19:35;;;;;;;13.30;4.13;;;;;;;;;;5013857;28;20100;-74
2021/08/08 07:22:00;;;;;;;26.20;4.30;;;;;;;;;;5021669;28;20072;-77
2021/08/08 07:24:26;;;;;;;21.60;4.38;;;;;;;;;;5002433;28;20063;-75
2021/08/08 07:26:52;;;;;;;10.73;4.75;;;;;;;;;;5022623;28;20033;-76
2021/08/08 07:29:17;;;;;;;14.05;4.20;;;;;;;;;;5020722;28;20486;-74
2021/08/08 07:31:42;;;;;;;16.55;4.93;;;;;;;;;;5019274;28;20044;-76
2021/08/08 07:34:08;;;;;;;14.38;3.97;;;;;;;;;;5019798;28;20032;-74
2021/08/08 07:36:33;;;;;;;9.32;3.97;;;;;;;;;;5018516;28;20102;-76
2021/08/08 07:38:59;;;;;;;18.42;5.07;;;;;;;;;;5010728;28;20061;-74
2021/08/08 07:41:24;;;;;;;13.90;4.38;;;;;;;;;;5021338;28;20025;-74
2021/08/08 07:43:50;;;;;;;17.92;4.40;;;;;;;;;;5021096;28;20041;-75
2021/08/08 07:46:15;;;;;;;8.77;4.18;;;;;;;;;;5003518;28;20092;-75
2021/08/08 07:48:41;;;;;;;22.77;4.82;;;;;;;;;;5020708;28;20033;-72
2021/08/08 07:51:06;;;;;;;16.90;4.47;;;;;;;;;;5019616;28;20135;-74
2021/08/08 07:53:32;;;;;;;12.48;3.70;;;;;;;;;;5020162;28;20084;-72
2021/08/08 07:55:57;;;;;;;15.90;3.92;;;;;;;;;;5016088;28;20073;-78
2021/08/08 07:58:23;;;;;;;15.95;4.60;;;;;;;;;;5023662;28;20120;-73
2021/08/08 08:00:49;;;;;;;14.40;4.47;;;;;;;;;;5003245;28;20058;-74
2021/08/08 08:03:14;;;;;;;24.48;6.45;;;;;;;;;;5019820;28;20047;-74
2021/08/08 08:05:40;;;;;;;12.75;5.20;;;;;;;;;;5020137;28;20079;-73
2021/08/08 08:08:06;;;;;;;17.60;5.15;;;;;;;;;;5017747;28;20773;-74
2021/08/08 08:10:32;;;;;;;18.67;6.75;;;;;;;;;;5021816;28;20060;-74
2021/08/08 08:12:59;;;;;;;18.27;5.50;;;;;;;;;;5016560;28;20426;-76
2021/08/08 08:15:25;;;;;;;32.72;6.13;;;;;;;;;;5020266;28;20751;-74
2021/08/08 08:17:51;;;;;;;21.63;6.20;;;;;;;;;;5021984;28;20052;-75
2021/08/08 08:20:17;;;;;;;23.75;6.68;;;;;;;;;;5002504;28;20083;-75
2021/08/08 08:22:43;;;;;;;25.40;6.38;;;;;;;;;;5017270;28;20060;-75
2021/08/08 08:25:09;;;;;;;27.50;6.15;;;;;;;;;;5018382;28;20034;-77
2021/08/08 08:27:35;;;;;;;25.90;6.22;;;;;;;;;;5020425;28;20069;-79
2021/08/08 08:30:01;;;;;;;20.35;5.75;;;;;;;;;;5021622;28;20667;-77
2021/08/08 08:32:26;;;;;;;27.65;5.72;;;;;;;;;;5017270;28;20115;-76
2021/08/08 08:34:52;;;;;;;38.22;6.50;;;;;;;;;;5022287;28;20044;-73
2021/08/08 08:37:19;;;;;;;32.13;8.20;;;;;;;;;;5020672;28;20834;-77
2021/08/08 08:39:45;;;;;;;22.77;6.85;;;;;;;;;;5009221;28;20061;-74
2021/08/08 08:42:11;;;;;;;20.88;5.25;;;;;;;;;;5021920;28;20072;-75
2021/08/08 08:44:37;;;;;;;28.77;6.22;;;;;;;;;;5026701;28;20060;-76
2021/08/08 08:47:04;;;;;;;29.60;7.10;;;;;;;;;;5007713;28;20029;-75
2021/08/08 08:49:30;;;;;;;41.65;8.48;;;;;;;;;;5018267;28;20068;-76
2021/08/08 08:52:03;;;;;;;26.17;7.05;;;;;;;;;;5024809;28;20065;-75
2021/08/08 08:54:29;;;;;;;25.55;7.60;;;;;;;;;;5017709;28;20021;-76
2021/08/08 08:56:58;;;;;;;29.25;7.18;;;;;;;;;;4994554;28;20037;-73
2021/08/08 08:59:25;;;;;;;41.88;7.68;;;;;;;;;;5009875;28;22779;-75
2021/08/08 09:01:51;;;;;;;30.88;6.70;;;;;;;;;;5019215;28;20026;-75
2021/08/08 09:04:16;;;;;;;35.80;6.57;;;;;;;;;;5025452;28;20033;-76
2021/08/08 09:06:42;;;;;;;32.22;7.45;;;;;;;;;;5023110;28;20033;-76
2021/08/08 09:09:08;;;;;;;29.90;8.50;;;;;;;;;;5017679;28;20684;-75
2021/08/08 09:11:42;;;;;;;41.85;6.72;;;;;;;;;;5020876;28;20057;-75
2021/08/08 09:14:12;;;;;;;25.63;6.80;;;;;;;;;;5025693;28;20076;-74
2021/08/08 09:16:40;;;;;;;21.20;6.47;;;;;;;;;;5024505;28;20030;-74
2021/08/08 09:19:06;;;;;;;33.22;7.18;;;;;;;;;;5019818;28;20124;-74
2021/08/08 09:21:42;;;;;;;38.15;6.93;;;;;;;;;;5025214;28;20017;-75
2021/08/08 09:24:07;;;;;;;37.50;6.80;;;;;;;;;;5027456;28;20029;-74
2021/08/08 09:26:35;;;;;;;37.88;7.00;;;;;;;;;;5001368;28;20482;-75
2021/08/08 09:29:11;;;;;;;34.85;6.13;;;;;;;;;;5021590;28;20099;-74
2021/08/08 09:31:48;;;;;;;34.90;8.60;;;;;;;;;;5022987;28;20025;-74
2021/08/08 09:34:33;;;;;;;32.92;6.45;;;;;;;;;;5013056;28;20029;-76
2021/08/08 09:37:01;;;;;;;32.47;5.93;;;;;;;;;;5019962;28;20041;-74
2021/08/08 09:39:45;;;;;;;28.05;6.03;;;;;;;;;;5019011;28;20021;-77
2021/08/08 09:42:25;;;;;;;36.28;7.82;;;;;;;;;;5014407;28;20045;-75
2021/08/08 09:45:00;;;;;;;31.58;6.88;;;;;;;;;;5022177;28;20081;-74
2021/08/08 09:47:43;;;;;;;29.52;6.30;;;;;;;;;;5024569;28;20025;-77
2021/08/08 09:50:17;;;;;;;37.83;7.18;;;;;;;;;;5015732;28;20040;-73
2021/08/08 09:52:53;;;;;;;37.72;6.63;;;;;;;;;;5024451;28;20025;-74
2021/08/08 09:55:20;;;;;;;24.92;5.85;;;;;;;;;;5008862;28;20034;-74
2021/08/08 09:57:45;;;;;;;23.63;5.72;;;;;;;;;;5023541;28;20031;-73
2021/08/08 10:00:28;;;;;;;28.60;7.57;;;;;;;;;;5013817;28;20040;-77
2021/08/08 10:02:54;;;;;;;25.85;6.10;;;;;;;;;;5024711;28;20037;-74
2021/08/08 10:05:20;;;;;;;22.60;4.93;;;;;;;;;;5023447;28;20029;-74
2021/08/08 10:07:47;;;;;;;30.60;5.78;;;;;;;;;;5005835;28;20491;-73
2021/08/08 10:10:13;;;;;;;18.35;5.20;;;;;;;;;;5018633;28;20108;-74
2021/08/08 10:13:00;;;;;;;27.83;5.90;;;;;;;;;;5019911;28;20049;-74
2021/08/08 10:15:27;;;;;;;32.97;6.18;;;;;;;;;;5022706;28;20026;-75
2021/08/08 10:17:55;;;;;;;26.05;5.55;;;;;;;;;;5023308;28;20083;-74
2021/08/08 10:20:21;;;;;;;18.40;4.50;;;;;;;;;;5021509;28;20402;-72
2021/08/08 10:22:50;;;;;;;19.10;4.53;;;;;;;;;;5023286;28;20021;-76
2021/08/08 10:25:18;;;;;;;23.08;4.47;;;;;;;;;;5022819;28;20044;-75
2021/08/08 10:27:44;;;;;;;17.05;4.82;;;;;;;;;;5023575;28;20030;-75
2021/08/08 10:30:09;;;;;;;31.33;4.90;;;;;;;;;;5023544;28;20040;-73
2021/08/08 10:32:35;;;;;;;20.65;4.75;;;;;;;;;;5025777;28;20750;-74
2021/08/08 10:35:15;;;;;;;22.30;5.28;;;;;;;;;;5019363;28;20029;-77
2021/08/08 10:37:41;;;;;;;23.90;4.85;;;;;;;;;;5019282;28;20029;-72
2021/08/08 10:40:08;;;;;;;13.73;3.75;;;;;;;;;;5014013;28;20061;-76
2021/08/08 10:42:46;;;;;;;19.40;5.15;;;;;;;;;;5020257;28;20021;-74
2021/08/08 10:45:25;;;;;;;15.50;3.83;;;;;;;;;;5022574;28;20042;-75
2021/08/08 10:47:59;;;;;;;14.63;5.38;;;;;;;;;;5015588;28;20033;-75
2021/08/08 10:50:54;;;;;;;19.23;4.05;;;;;;;;;;5018363;28;20057;-74
2021/08/08 10:53:24;;;;;;;16.95;4.40;;;;;;;;;;5005550;28;20113;-77
2021/08/08 10:56:02;;;;;;;21.85;3.83;;;;;;;;;;5022690;28;20046;-77
2021/08/08 10:58:32;;;;;;;23.00;3.88;;;;;;;;;;5020843;28;20053;-75
2021/08/08 11:01:16;;;;;;;20.20;3.55;;;;;;;;;;5023591;28;20499;-73
2021/08/08 11:03:55;;;;;;;10.90;3.10;;;;;;;;;;5000869;28;20045;-75
2021/08/08 11:06:24;;;;;;;19.40;4.18;;;;;;;;;;5020177;28;20032;-75
2021/08/08 11:08:57;;;;;;;19.80;4.07;;;;;;;;;;5020562;28;20037;-77
2021/08/08 11:11:32;;;;;;;19.25;4.00;;;;;;;;;;5022957;28;20022;-74
2021/08/08 11:14:13;;;;;;;11.88;3.60;;;;;;;;;;5012973;28;20099;-74
2021/08/08 11:16:40;;;;;;;15.30;3.67;;;;;;;;;;5021213;28;20025;-74
2021/08/08 11:19:06;;;;;;;11.85;3.58;;;;;;;;;;5025285;28;20561;-74
2021/08/08 11:21:32;;;;;;;12.23;3.30;;;;;;;;;;5017293;28;20029;-76
2021/08/08 13:16:42;;;;;;;16.92;2.72;;;;;;;;;;5055900;28;20929;-61
2021/08/08 13:19:07;;;;;;;21.42;3.55;;;;;;;;;;5053393;28;20107;-61
2021/08/08 13:21:34;;;;;;;11.80;4.55;;;;;;;;;;5052318;28;20028;-62
2021/08/08 13:24:00;;;;;;;12.40;2.90;;;;;;;;;;5052403;28;20079;-63
2021/08/08 13:26:25;;;;;;;15.93;3.08;;;;;;;;;;5059905;28;20029;-61
2021/08/08 13:28:51;;;;;;;19.90;3.47;;;;;;;;;;5053920;28;20037;-61
2021/08/08 13:31:16;;;;;;;12.13;3.05;;;;;;;;;;5049847;28;20516;-61
2021/08/08 13:33:42;;;;;;;12.07;3.33;;;;;;;;;;5054350;28;20135;-62
2021/08/08 13:36:08;;;;;;;14.27;3.05;;;;;;;;;;5025579;28;20043;-62
2021/08/08 13:38:33;;;;;;;17.90;2.90;;;;;;;;;;5001022;28;20035;-63
2021/08/08 13:40:59;;;;;;;17.88;2.70;;;;;;;;;;4998507;28;20026;-62
2021/08/08 13:43:24;;;;;;;13.13;2.78;;;;;;;;;;4996329;28;20026;-62
2021/08/08 13:45:50;;;;;;;14.38;2.65;;;;;;;;;;4993756;28;20092;-62
2021/08/08 13:48:15;;;;;;;15.98;3.70;;;;;;;;;;4996729;28;20061;-62
2021/08/08 13:50:41;;;;;;;13.57;2.40;;;;;;;;;;4995419;28;20029;-62
2021/08/08 13:53:08;;;;;;;19.42;2.67;;;;;;;;;;4996334;28;20041;-61
2021/08/08 13:55:33;;;;;;;9.90;2.03;;;;;;;;;;4998185;28;20058;-61
2021/08/08 13:57:59;;;;;;;12.30;2.50;;;;;;;;;;4994174;28;20489;-62
2021/08/08 14:00:24;;;;;;;16.35;2.88;;;;;;;;;;4995316;28;20485;-62
2021/08/08 14:02:50;;;;;;;21.55;2.85;;;;;;;;;;4998535;28;20038;-62
2021/08/08 14:05:16;;;;;;;16.95;3.00;;;;;;;;;;4995120;28;20057;-62
2021/08/08 14:07:42;;;;;;;15.75;2.60;;;;;;;;;;4998124;28;20034;-62
2021/08/08 14:10:11;;;;;;;15.95;3.05;;;;;;;;;;4995558;28;20114;-62
2021/08/08 14:12:37;;;;;;;13.30;2.58;;;;;;;;;;4993825;28;20520;-62
2021/08/08 14:15:03;;;;;;;10.48;2.38;;;;;;;;;;4994101;28;20397;-62
2021/08/08 14:17:28;;;;;;;14.75;2.97;;;;;;;;;;4992866;28;20030;-62
2021/08/08 14:19:54;;;;;;;15.10;2.70;;;;;;;;;;4996453;28;20033;-62
2021/08/08 14:22:19;;;;;;;11.02;2.42;;;;;;;;;;4992190;28;20034;-62
2021/08/08 14:24:46;;;;;;;15.02;2.72;;;;;;;;;;4996744;28;20330;-62
2021/08/08 14:27:11;;;;;;;12.38;2.13;;;;;;;;;;4975959;28;20078;-62
2021/08/08 14:29:37;;;;;;;11.50;2.35;;;;;;;;;;4978657;28;20042;-61
2021/08/08 14:32:03;;;;;;;10.65;2.55;;;;;;;;;;4975518;28;20062;-62
2021/08/08 14:34:28;;;;;;;8.68;1.83;;;;;;;;;;4980815;28;20035;-63
2021/08/08 14:36:54;;;;;;;12.77;2.50;;;;;;;;;;4980716;28;20045;-62
2021/08/08 14:39:20;;;;;;;17.92;3.15;;;;;;;;;;4983881;28;20044;-64
2021/08/08 14:41:45;;;;;;;9.30;2.55;;;;;;;;;;4979450;28;20396;-62
2021/08/08 14:44:11;;;;;;;12.82;2.50;;;;;;;;;;4978835;28;20577;-62
2021/08/08 14:46:36;;;;;;;14.60;2.75;;;;;;;;;;4980508;28;20083;-62
2021/08/08 14:49:02;;;;;;;10.32;2.80;;;;;;;;;;4979221;28;20481;-63
2021/08/08 14:51:30;;;;;;;13.57;2.60;;;;;;;;;;4979177;28;20033;-61
2021/08/08 14:53:55;;;;;;;11.27;2.40;;;;;;;;;;4980833;28;20034;-62
2021/08/08 14:56:21;;;;;;;19.25;3.08;;;;;;;;;;4978479;28;20034;-62
2021/08/08 14:58:46;;;;;;;13.18;2.75;;;;;;;;;;4985406;28;20118;-61
2021/08/08 15:01:13;;;;;;;11.20;2.53;;;;;;;;;;4981828;28;20045;-61
2021/08/08 15:03:38;;;;;;;11.85;2.45;;;;;;;;;;4979782;28;20088;-62
2021/08/08 15:06:03;;;;;;;15.45;3.42;;;;;;;;;;4974893;28;20547;-61
2021/08/08 15:08:29;;;;;;;11.48;1.92;;;;;;;;;;4979870;28;20049;-61
2021/08/08 15:10:55;;;;;;;12.90;2.00;;;;;;;;;;4979219;28;20090;-63
2021/08/08 15:13:20;;;;;;;17.70;2.53;;;;;;;;;;4981179;28;20037;-63
2021/08/08 15:15:46;;;;;;;12.63;2.42;;;;;;;;;;4981086;28;20065;-62
2021/08/08 15:18:11;;;;;;;15.02;2.28;;;;;;;;;;4978203;28;20038;-61
2021/08/08 15:20:37;;;;;;;12.95;2.45;;;;;;;;;;4980553;28;20113;-61
2021/08/08 15:23:03;;;;;;;16.00;2.58;;;;;;;;;;4976674;28;20033;-61
2021/08/08 15:25:29;;;;;;;22.60;2.35;;;;;;;;;;4979340;28;20420;-61
2021/08/08 15:27:55;;;;;;;9.40;2.17;;;;;;;;;;4978996;28;20030;-62
2021/08/08 15:30:21;;;;;;;10.60;2.42;;;;;;;;;;4977582;28;20731;-62
2021/08/08 15:32:46;;;;;;;13.35;2.00;;;;;;;;;;4979474;28;20031;-61
2021/08/08 15:35:13;;;;;;;7.07;1.83;;;;;;;;;;4984594;28;20031;-61
2021/08/08 15:37:38;;;;;;;7.55;2.03;;;;;;;;;;4981179;28;20077;-62
2021/08/08 15:40:05;;;;;;;5.88;1.88;;;;;;;;;;4977591;28;20484;-61
2021/08/08 15:42:30;;;;;;;14.18;1.75;;;;;;;;;;4977095;28;20045;-61
2021/08/08 15:44:56;;;;;;;5.15;1.20;;;;;;;;;;4977135;28;20027;-61
2021/08/08 15:47:22;;;;;;;9.77;2.50;;;;;;;;;;4976624;28;20034;-60
2021/08/08 15:49:48;;;;;;;7.95;1.83;;;;;;;;;;4979552;28;20489;-60
2021/08/08 15:52:13;;;;;;;5.90;1.85;;;;;;;;;;4986249;28;20061;-60
2021/08/08 15:54:39;;;;;;;5.22;1.98;;;;;;;;;;4975560;28;20497;-61
2021/08/08 15:57:04;;;;;;;5.70;1.85;;;;;;;;;;4976104;28;20027;-61
2021/08/08 15:59:30;;;;;;;11.43;1.98;;;;;;;;;;4979825;28;20477;-61
2021/08/08 16:01:55;;;;;;;6.40;1.90;;;;;;;;;;4982443;28;20133;-59
2021/08/08 16:04:21;;;;;;;6.75;1.48;;;;;;;;;;4981913;28;20040;-59
2021/08/08 16:06:46;;;;;;;10.00;2.08;;;;;;;;;;4983638;28;20436;-59
2021/08/08 16:09:12;;;;;;;6.97;2.38;;;;;;;;;;4974326;28;20081;-60
2021/08/08 16:11:38;;;;;;;8.07;2.20;;;;;;;;;;4977193;28;20089;-60
2021/08/08 16:14:03;;;;;;;6.43;2.10;;;;;;;;;;4984638;28;20113;-60
2021/08/08 16:16:29;;;;;;;8.15;2.10;;;;;;;;;;4979411;28;20153;-60
2021/08/08 16:18:55;;;;;;;8.80;2.00;;;;;;;;;;4983546;28;20030;-60
2021/08/08 16:21:20;;;;;;;7.47;2.28;;;;;;;;;;4974652;28;20034;-60
2021/08/08 16:23:46;;;;;;;9.70;1.92;;;;;;;;;;4979086;28;20030;-60